Startpagina
METAR-TAF:

METAR-TAF

Vliegvelden :

Flughafen Münster-Osnabrück

Münster-Osnabrück, Duitsland

breedte: 52-08N, lengte: 007-42E, hoogte: 48 m

Actueel weer

Dit bericht is 16 minuten geleden gemaakt, om 12:50 UTC
Wind 8 kt uit het oosten met uitschieters tot 19 kt, variërend tussen het noorden en het zuiden
Temperatuur 24°C
Vochtigheid 36%
Druk 1016 hPa
Zicht 10 km of meer
geen wolken onder 1500 m en geen cumulonimbus

METAR: EDDG 211250Z 10008G19KT 010V180 CAVOK 24/08 Q1016 NOSIG

Tijdstip: 15:06 (13:06 UTC)

Verwachting

Dit bericht is 2 uur en het 6 minuten geleden gemaakt, om 11:00 UTC
Verwachting geldig van 21 om 12 UTC tot 22 om 12 UTC
Wind 11 kt uit het oosten
Zicht 10 km of meer
geen wolken onder 1500 m en geen cumulonimbus
Tijdelijke
van 21 om 12 UTC tot 21 om 15 UTC
Wind 15 kt uit het oosten met uitschieters tot 25 kt
Wijzigt naar
van 21 om 17 UTC tot 21 om 20 UTC
Wind 5 kt uit het oosten

TAF: EDDG 211100Z 2112/2212 09011KT CAVOK TEMPO 2112/2115 09015G25KT BECMG 2117/2120 08005KT

Waarnemingen en weersverwachtingen van meer dan 4000 vliegvelden (METAR en TAF).

De beschikbare stations zijn de gele en rode punten op de kaart.

Ga met uw muis naar het station om de naam te zien.

Klik dan om waarnemingen en weersverwachtingen te zien.

kaart wijzigen: klik op de groene knoppen met een zwart kruis om in te zoomen, op de groene knop met een streepje om uit te zoomen of op de groene pijlen voor aangrenzende kaarten.


METAR-TAF: